FABL/BFN METAR and TAF weather

Enter ICAO airport designator
Station Type Date Time Source
FABL METAR 2024/04/17 19:00 UTC NOAA

FABL 171900Z AUTO 13002KT //// R02///// // ///////// 12/12 Q1026


Station Type Date Time Source
FABL Decoded METAR 2024/04/17 19:00 UTC NOAA

Bloemfontein, Bloemfontein Airport, South Africa (FABL) 29-06S 026-18E 1400M
Apr 17, 2024 - 03:00 PM EDT / 2024.04.17 1900 UTC
Wind: from the SE (130 degrees) at 2 MPH (2 KT):0
Temperature: 53 F (12 C)
Dew Point: 53 F (12 C)
Relative Humidity: 100%
Pressure (altimeter): 30.30 in. Hg (1026 hPa)
ob: FABL 171900Z AUTO 13002KT //// R02///// // ///////// 12/12 Q1026
cycle: 19

Station Type Date Time Source
FABL TAF 2024/04/17 18:12 UTC NOAA